createdAt,value
2022-08-04T00:00:33.078Z,10.13
2022-08-04T00:03:12.960Z,10.40
2022-08-04T00:05:55.734Z,11.60
2022-08-04T00:08:36.137Z,11.87
2022-08-04T00:11:09.246Z,11.50
2022-08-04T00:13:58.144Z,11.93
2022-08-04T00:16:38.732Z,11.37
2022-08-04T00:19:13.215Z,12.23
2022-08-04T00:21:48.581Z,11.40
2022-08-04T00:24:18.163Z,12.37
2022-08-04T00:26:48.466Z,11.40
2022-08-04T00:29:17.230Z,11.93
2022-08-04T00:31:56.554Z,12.53
2022-08-04T00:34:28.212Z,12.77
2022-08-04T00:36:58.372Z,12.50
2022-08-04T00:39:28.304Z,12.07
2022-08-04T00:42:29.972Z,11.63
2022-08-04T00:45:19.538Z,10.87
2022-08-04T00:48:05.792Z,12.07
2022-08-04T00:50:45.664Z,12.03
2022-08-04T00:53:31.610Z,11.17
2022-08-04T00:56:17.520Z,12.37
2022-08-04T00:59:00.906Z,12.03
2022-08-04T01:01:46.333Z,12.00
2022-08-04T01:04:22.495Z,11.10
2022-08-04T01:07:09.733Z,12.17
2022-08-04T01:09:52.696Z,12.43
2022-08-04T01:12:44.845Z,12.10
2022-08-04T01:15:24.253Z,12.17
2022-08-04T01:18:06.415Z,12.87
2022-08-04T01:20:42.282Z,12.90
2022-08-04T01:24:00.226Z,12.27
2022-08-04T01:26:57.571Z,12.70
2022-08-04T01:29:44.054Z,12.43
2022-08-04T01:32:25.824Z,12.57
2022-08-04T01:35:02.409Z,12.70
2022-08-04T01:37:50.594Z,12.33
2022-08-04T01:40:19.014Z,13.07
2022-08-04T01:42:50.947Z,13.37
2022-08-04T01:45:20.689Z,13.17
2022-08-04T01:47:53.335Z,13.77
2022-08-04T01:50:22.863Z,12.60
2022-08-04T01:52:55.673Z,13.20
2022-08-04T01:55:24.658Z,12.93
2022-08-04T01:58:13.819Z,12.40
2022-08-04T02:00:56.268Z,12.37
2022-08-04T02:04:20.283Z,12.10
2022-08-04T02:06:25.683Z,12.43
2022-08-04T02:09:05.662Z,11.47
2022-08-04T02:11:33.909Z,10.77
2022-08-04T02:14:13.015Z,12.53
2022-08-04T02:16:52.759Z,12.77
2022-08-04T02:19:31.745Z,12.57
2022-08-04T02:22:08.739Z,10.60
2022-08-04T02:24:47.698Z,11.60
2022-08-04T02:27:16.610Z,11.77
2022-08-04T02:29:53.039Z,12.07
2022-08-04T02:32:28.040Z,12.07
2022-08-04T02:35:05.071Z,12.07
2022-08-04T02:37:34.300Z,11.07
2022-08-04T02:40:06.835Z,12.10
2022-08-04T02:42:35.706Z,11.43
2022-08-04T02:45:05.158Z,11.97
2022-08-04T02:48:28.804Z,12.27
2022-08-04T02:50:28.146Z,12.50
2022-08-04T02:52:59.972Z,11.87
2022-08-04T02:55:30.470Z,13.50
2022-08-04T02:58:00.329Z,13.43
2022-08-04T03:00:29.192Z,11.57
2022-08-04T03:03:13.017Z,13.03
2022-08-04T03:06:01.894Z,12.47
2022-08-04T03:09:10.806Z,12.37
2022-08-04T03:12:21.303Z,13.03
2022-08-04T03:15:31.030Z,13.17
2022-08-04T03:19:02.823Z,13.13
2022-08-04T03:22:09.400Z,13.67
2022-08-04T03:25:27.145Z,13.00
2022-08-04T03:28:44.199Z,13.83
2022-08-04T03:31:49.261Z,11.90
2022-08-04T03:34:46.736Z,13.90
2022-08-04T03:37:45.520Z,13.37
2022-08-04T03:40:40.562Z,12.57
2022-08-04T03:43:57.850Z,13.17
2022-08-04T03:46:52.244Z,13.90
2022-08-04T03:50:07.790Z,14.50
2022-08-04T03:53:17.096Z,13.20
2022-08-04T03:56:27.585Z,14.90
2022-08-04T03:59:29.177Z,13.13
2022-08-04T04:02:30.165Z,13.30
2022-08-04T04:05:24.727Z,13.27
2022-08-04T04:08:27.448Z,12.87
2022-08-04T04:11:57.245Z,13.90
2022-08-04T04:14:50.715Z,13.40
2022-08-04T04:17:47.091Z,13.07
2022-08-04T04:20:59.001Z,13.93
2022-08-04T04:23:46.342Z,14.43
2022-08-04T04:26:40.028Z,14.73
2022-08-04T04:29:57.473Z,15.47
2022-08-04T04:32:37.559Z,13.67
2022-08-04T04:35:20.949Z,15.63
2022-08-04T04:38:39.657Z,16.27
2022-08-04T04:41:30.610Z,15.43
2022-08-04T04:44:20.096Z,15.50
2022-08-04T04:46:58.217Z,15.07
2022-08-04T04:49:36.014Z,16.43
2022-08-04T04:52:13.579Z,15.57
2022-08-04T04:54:55.976Z,15.93
2022-08-04T04:57:53.951Z,14.87
2022-08-04T05:00:16.387Z,15.83
2022-08-04T05:03:23.005Z,14.37
2022-08-04T05:06:15.163Z,15.87
2022-08-04T05:09:05.164Z,14.37
2022-08-04T05:14:30.898Z,14.23
2022-08-04T05:15:03.286Z,14.23
2022-08-04T05:17:38.740Z,13.73
2022-08-04T05:20:11.546Z,13.73
2022-08-04T05:22:47.509Z,13.70
2022-08-04T05:25:22.923Z,14.60
2022-08-04T05:28:00.643Z,13.53
2022-08-04T05:30:30.243Z,13.23
2022-08-04T05:33:04.108Z,12.67
2022-08-04T05:36:18.009Z,13.60
2022-08-04T05:38:32.693Z,11.80
2022-08-04T05:41:02.039Z,11.57
2022-08-04T05:43:32.270Z,11.68
2022-08-04T05:46:02.361Z,11.02
2022-08-04T05:48:34.122Z,12.80
2022-08-04T05:51:04.667Z,13.57
2022-08-04T05:53:34.049Z,13.85
2022-08-04T05:56:04.734Z,14.20
2022-08-04T05:58:36.116Z,13.53
2022-08-04T06:01:05.309Z,12.83
2022-08-04T06:03:35.634Z,12.25
2022-08-04T06:06:05.430Z,12.00
2022-08-04T06:08:33.825Z,12.27
2022-08-04T06:11:07.696Z,11.30
2022-08-04T06:13:48.871Z,10.68
2022-08-04T06:16:29.712Z,10.30
2022-08-04T06:19:59.643Z,10.27
2022-08-04T06:21:56.680Z,10.50
2022-08-04T06:24:28.040Z,10.38
2022-08-04T06:26:57.577Z,10.05
2022-08-04T06:29:34.152Z,9.80
2022-08-04T06:32:30.443Z,9.50
2022-08-04T06:35:04.205Z,10.30
2022-08-04T06:37:41.847Z,9.02
2022-08-04T06:40:31.965Z,8.35
2022-08-04T06:43:03.019Z,8.48
2022-08-04T06:45:35.398Z,9.18
2022-08-04T06:48:05.157Z,8.27
2022-08-04T06:51:25.041Z,9.07
2022-08-04T06:53:24.744Z,9.48
2022-08-04T06:55:53.797Z,8.50
2022-08-04T06:58:23.288Z,7.55
2022-08-04T07:00:53.993Z,7.97
2022-08-04T07:03:23.105Z,6.50
2022-08-04T07:05:52.566Z,6.97
2022-08-04T07:08:22.098Z,6.78
2022-08-04T07:10:53.228Z,6.30
2022-08-04T07:13:24.945Z,6.03
2022-08-04T07:15:56.377Z,5.93
2022-08-04T07:18:24.614Z,5.85
2022-08-04T07:20:53.445Z,5.72
2022-08-04T07:23:26.468Z,5.65
2022-08-04T07:26:01.125Z,6.00
2022-08-04T07:28:41.701Z,5.88
2022-08-04T07:31:34.352Z,5.78
2022-08-04T07:34:16.425Z,5.70
2022-08-04T07:36:50.948Z,5.88
2022-08-04T07:39:28.634Z,5.35
2022-08-04T07:41:59.319Z,5.78
2022-08-04T07:44:31.282Z,5.20
2022-08-04T07:47:02.075Z,5.15
2022-08-04T07:49:56.363Z,5.50
2022-08-04T07:52:19.193Z,5.60
2022-08-04T07:54:48.825Z,5.18
2022-08-04T07:57:41.639Z,5.18
2022-08-04T08:00:10.877Z,4.82
2022-08-04T08:02:40.718Z,5.30
2022-08-04T08:05:12.151Z,4.68
2022-08-04T08:07:50.449Z,5.13
2022-08-04T08:10:23.275Z,4.60
2022-08-04T08:12:52.616Z,4.40
2022-08-04T08:15:22.181Z,4.55
2022-08-04T08:17:59.181Z,4.13
2022-08-04T08:20:31.028Z,4.35
2022-08-04T08:23:00.209Z,4.35
2022-08-04T08:25:28.790Z,4.32
2022-08-04T08:27:57.120Z,4.40
2022-08-04T08:30:31.819Z,3.88
2022-08-04T08:33:07.026Z,3.85
2022-08-04T08:35:53.677Z,3.90
2022-08-04T08:38:34.511Z,4.38
2022-08-04T08:41:24.943Z,3.72
2022-08-04T08:44:37.647Z,4.07
2022-08-04T08:47:21.595Z,3.58
2022-08-04T08:50:22.655Z,3.83
2022-08-04T08:53:18.375Z,3.95
2022-08-04T08:56:13.296Z,3.50
2022-08-04T08:59:14.959Z,3.17
2022-08-04T09:02:02.167Z,3.28
2022-08-04T09:04:58.880Z,3.50
2022-08-04T09:07:59.363Z,3.33
2022-08-04T09:10:35.395Z,3.45
2022-08-04T09:13:07.483Z,3.28
2022-08-04T09:15:41.327Z,3.20
2022-08-04T09:18:21.328Z,3.30
2022-08-04T09:20:55.086Z,3.42
2022-08-04T09:23:35.626Z,3.63
2022-08-04T09:26:12.832Z,2.90
2022-08-04T09:28:54.660Z,3.13
2022-08-04T09:31:48.655Z,2.90
2022-08-04T09:34:45.223Z,3.33
2022-08-04T09:37:26.130Z,3.33
2022-08-04T09:40:09.379Z,3.03
2022-08-04T09:42:52.131Z,3.42
2022-08-04T09:45:32.677Z,3.25
2022-08-04T09:48:20.956Z,2.83
2022-08-04T09:50:58.161Z,2.92
2022-08-04T09:53:54.464Z,3.08
2022-08-04T09:56:29.757Z,3.05
2022-08-04T09:59:09.286Z,2.90
2022-08-04T10:01:39.914Z,3.08
2022-08-04T10:04:13.045Z,3.33
2022-08-04T10:07:02.482Z,3.25
2022-08-04T10:10:02.116Z,3.55
2022-08-04T10:12:43.261Z,3.65
2022-08-04T10:15:18.645Z,4.47
2022-08-04T10:18:05.505Z,4.13
2022-08-04T10:20:57.433Z,4.50
2022-08-04T10:23:55.852Z,4.45
2022-08-04T10:26:38.159Z,4.03
2022-08-04T10:29:14.899Z,3.72
2022-08-04T10:31:47.878Z,3.72
2022-08-04T10:34:22.693Z,4.20
2022-08-04T10:36:59.394Z,4.85
2022-08-04T10:39:43.483Z,4.38
2022-08-04T10:42:23.769Z,4.80
2022-08-04T10:45:09.680Z,5.50
2022-08-04T10:47:52.412Z,5.55
2022-08-04T10:50:25.486Z,5.20
2022-08-04T10:53:02.582Z,5.20
2022-08-04T10:56:07.444Z,4.57
2022-08-04T10:58:47.572Z,4.45
2022-08-04T11:02:01.304Z,4.15
2022-08-04T11:04:27.721Z,3.83
2022-08-04T11:06:57.529Z,4.05
2022-08-04T11:09:26.250Z,4.13
2022-08-04T11:12:01.623Z,3.70
2022-08-04T11:14:38.927Z,3.75
2022-08-04T11:17:15.491Z,3.20
2022-08-04T11:19:53.636Z,3.50
2022-08-04T11:22:27.642Z,3.00
2022-08-04T11:25:06.275Z,3.22
2022-08-04T11:27:48.005Z,2.85
2022-08-04T11:30:18.286Z,2.92
2022-08-04T11:32:54.077Z,2.40
2022-08-04T11:35:34.137Z,2.70
2022-08-04T11:38:12.597Z,2.33
2022-08-04T11:40:55.783Z,2.75
2022-08-04T11:44:00.646Z,2.58
2022-08-04T11:46:33.625Z,2.35
2022-08-04T11:49:09.782Z,2.60
2022-08-04T11:51:38.415Z,1.95
2022-08-04T11:54:07.261Z,2.40
2022-08-04T11:56:37.816Z,2.40
2022-08-04T11:59:09.130Z,2.45
2022-08-04T12:01:52.337Z,2.30
2022-08-04T12:04:39.043Z,2.47
2022-08-04T12:07:33.027Z,2.20
2022-08-04T12:10:41.296Z,2.70
2022-08-04T12:13:19.750Z,2.55
2022-08-04T12:15:59.135Z,2.33
2022-08-04T12:18:36.079Z,2.75
2022-08-04T12:21:12.035Z,3.28
2022-08-04T12:23:45.334Z,2.67
2022-08-04T12:26:22.871Z,2.85
2022-08-04T12:29:12.301Z,2.92
2022-08-04T12:31:48.178Z,3.10
2022-08-04T12:34:29.968Z,3.10
2022-08-04T12:37:07.189Z,3.08
2022-08-04T12:40:28.212Z,2.40
2022-08-04T12:42:38.118Z,2.40
2022-08-04T12:45:10.275Z,2.13
2022-08-04T12:47:40.235Z,2.33
2022-08-04T12:50:10.467Z,1.92
2022-08-04T12:53:04.243Z,2.10
2022-08-04T12:55:37.101Z,2.10
2022-08-04T12:58:43.443Z,1.90
2022-08-04T13:02:08.770Z,1.95
2022-08-04T13:04:02.198Z,2.28
2022-08-04T13:06:33.138Z,2.00
2022-08-04T13:09:09.564Z,2.20
2022-08-04T13:11:44.589Z,2.50
2022-08-04T13:14:26.707Z,2.30
2022-08-04T13:16:59.863Z,2.63
2022-08-04T13:19:29.618Z,2.90
2022-08-04T13:22:02.595Z,3.08
2022-08-04T13:24:41.676Z,2.50
2022-08-04T13:27:24.619Z,2.35
2022-08-04T13:30:03.783Z,2.38
2022-08-04T13:32:33.492Z,2.45
2022-08-04T13:35:04.614Z,2.05
2022-08-04T13:37:36.152Z,2.25
2022-08-04T13:40:08.645Z,2.38
2022-08-04T13:42:38.581Z,2.33
2022-08-04T13:45:10.035Z,1.90
2022-08-04T13:47:42.092Z,1.50
2022-08-04T13:50:23.778Z,1.67
2022-08-04T13:52:56.302Z,1.50
2022-08-04T13:55:30.531Z,1.60
2022-08-04T13:58:07.136Z,1.60
2022-08-04T14:00:46.230Z,1.90
2022-08-04T14:03:24.866Z,1.55
2022-08-04T14:06:18.059Z,1.27
2022-08-04T14:08:51.609Z,1.50
2022-08-04T14:12:06.280Z,1.45
2022-08-04T14:14:28.229Z,1.70
2022-08-04T14:17:00.598Z,1.10
2022-08-04T14:19:36.028Z,1.45
2022-08-04T14:22:05.701Z,1.20
2022-08-04T14:24:33.849Z,1.27
2022-08-04T14:27:05.942Z,1.38
2022-08-04T14:29:41.865Z,1.45
2022-08-04T14:32:14.240Z,1.10
2022-08-04T14:34:46.240Z,1.20
2022-08-04T14:37:19.645Z,1.30
2022-08-04T14:40:17.369Z,1.52
2022-08-04T14:42:53.969Z,1.40
2022-08-04T14:45:35.699Z,1.30
2022-08-04T14:48:08.315Z,1.27
2022-08-04T14:50:40.675Z,1.35
2022-08-04T14:53:13.369Z,1.25
2022-08-04T14:55:45.635Z,1.17
2022-08-04T14:58:36.283Z,1.40
2022-08-04T15:01:10.712Z,1.08
2022-08-04T15:03:50.009Z,1.40
2022-08-04T15:06:23.795Z,1.20
2022-08-04T15:08:53.655Z,1.38
2022-08-04T15:11:23.007Z,2.40
2022-08-04T15:13:54.164Z,2.10
2022-08-04T15:16:23.032Z,2.63
2022-08-04T15:18:52.776Z,2.67
2022-08-04T15:21:24.503Z,2.75
2022-08-04T15:23:52.794Z,2.45
2022-08-04T15:26:30.055Z,2.47
2022-08-04T15:29:09.385Z,2.20
2022-08-04T15:32:06.131Z,2.17
2022-08-04T15:34:47.165Z,2.28
2022-08-04T15:37:20.385Z,2.20
2022-08-04T15:39:55.581Z,1.92
2022-08-04T15:42:34.256Z,1.73
2022-08-04T15:46:41.539Z,1.75
2022-08-04T15:48:34.176Z,1.63
2022-08-04T15:51:14.753Z,1.67
2022-08-04T15:54:27.884Z,1.60
2022-08-04T15:57:02.514Z,1.50
2022-08-04T16:00:00.378Z,1.35
2022-08-04T16:02:47.941Z,1.70
2022-08-04T16:05:39.311Z,1.50
2022-08-04T16:08:18.260Z,1.40
2022-08-04T16:10:49.862Z,1.30
2022-08-04T16:13:21.018Z,1.40
2022-08-04T16:15:53.880Z,1.42
2022-08-04T16:18:43.511Z,1.60
2022-08-04T16:21:24.628Z,1.73
2022-08-04T16:24:17.940Z,1.48
2022-08-04T16:26:55.032Z,1.45
2022-08-04T16:29:45.446Z,1.42
2022-08-04T16:32:22.842Z,1.70
2022-08-04T16:34:59.811Z,1.55
2022-08-04T16:37:34.548Z,1.65
2022-08-04T16:40:36.410Z,1.70
2022-08-04T16:43:13.391Z,1.50
2022-08-04T16:45:48.300Z,1.80
2022-08-04T16:48:19.640Z,1.77
2022-08-04T16:51:06.500Z,2.25
2022-08-04T16:53:53.802Z,2.33
2022-08-04T16:56:33.723Z,2.67
2022-08-04T16:59:09.288Z,2.40
2022-08-04T17:01:38.701Z,2.20
2022-08-04T17:04:07.820Z,1.85
2022-08-04T17:06:40.801Z,1.80
2022-08-04T17:09:13.838Z,2.20
2022-08-04T17:11:43.950Z,2.40
2022-08-04T17:14:17.592Z,2.00
2022-08-04T17:16:45.722Z,2.15
2022-08-04T17:19:24.235Z,1.80
2022-08-04T17:22:04.699Z,2.60
2022-08-04T17:24:38.027Z,2.40
2022-08-04T17:28:09.156Z,2.20
2022-08-04T17:29:55.660Z,3.03
2022-08-04T17:32:24.320Z,2.47
2022-08-04T17:34:54.980Z,2.50
2022-08-04T17:37:36.754Z,2.08
2022-08-04T17:40:22.938Z,2.20
2022-08-04T17:44:04.403Z,2.30
2022-08-04T17:46:28.246Z,1.98
2022-08-04T17:49:07.167Z,1.70
2022-08-04T17:52:01.912Z,1.58
2022-08-04T17:54:39.997Z,1.98
2022-08-04T17:57:19.662Z,2.28
2022-08-04T17:59:57.959Z,2.08
2022-08-04T18:02:32.603Z,2.05
2022-08-04T18:05:07.083Z,2.25
2022-08-04T18:08:35.432Z,1.98
2022-08-04T18:10:55.507Z,1.77
2022-08-04T18:13:26.138Z,1.88
2022-08-04T18:16:05.038Z,2.00
2022-08-04T18:18:34.921Z,1.90
2022-08-04T18:21:07.038Z,2.30
2022-08-04T18:23:35.183Z,1.85
2022-08-04T18:26:23.853Z,2.33
2022-08-04T18:28:52.277Z,1.98
2022-08-04T18:31:21.450Z,2.10
2022-08-04T18:33:57.472Z,2.50
2022-08-04T18:36:32.666Z,2.50
2022-08-04T18:39:13.459Z,2.50
2022-08-04T18:42:01.934Z,2.08
2022-08-04T18:44:52.961Z,2.50
2022-08-04T18:47:24.872Z,2.25
2022-08-04T18:51:01.173Z,2.00
2022-08-04T18:52:46.638Z,2.15
2022-08-04T18:55:51.611Z,2.30
2022-08-04T18:58:12.715Z,2.25
2022-08-04T19:00:45.668Z,2.42
2022-08-04T19:03:16.224Z,2.40
2022-08-04T19:05:50.394Z,2.28
2022-08-04T19:08:33.025Z,2.45
2022-08-04T19:11:37.287Z,2.58
2022-08-04T19:13:58.665Z,2.30
2022-08-04T19:16:30.756Z,2.63
2022-08-04T19:19:00.303Z,3.42
2022-08-04T19:22:02.216Z,3.17
2022-08-04T19:24:32.989Z,3.03
2022-08-04T19:27:07.197Z,3.10
2022-08-04T19:29:48.621Z,2.70
2022-08-04T19:32:16.806Z,2.60
2022-08-04T19:34:47.239Z,2.47
2022-08-04T19:37:58.502Z,3.10
2022-08-04T19:40:09.917Z,3.03
2022-08-04T19:42:42.327Z,3.55
2022-08-04T19:45:16.138Z,4.03
2022-08-04T19:48:16.558Z,3.55
2022-08-04T19:50:36.360Z,3.43
2022-08-04T19:53:19.712Z,3.50
2022-08-04T19:55:49.775Z,3.53
2022-08-04T19:58:19.767Z,3.57
2022-08-04T20:00:57.258Z,4.50
2022-08-04T20:04:10.558Z,3.70
2022-08-04T20:06:15.399Z,3.93
2022-08-04T20:08:48.320Z,4.37
2022-08-04T20:11:18.434Z,4.43
2022-08-04T20:13:54.380Z,3.53
2022-08-04T20:16:29.971Z,4.00
2022-08-04T20:19:03.646Z,3.27
2022-08-04T20:21:53.875Z,3.70
2022-08-04T20:24:37.845Z,3.70
2022-08-04T20:27:22.066Z,3.50
2022-08-04T20:29:55.545Z,3.97
2022-08-04T20:32:28.027Z,3.73
2022-08-04T20:34:58.682Z,4.03
2022-08-04T20:37:55.211Z,3.90
2022-08-04T20:40:17.595Z,3.90
2022-08-04T20:42:47.405Z,3.50
2022-08-04T20:45:16.868Z,3.73
2022-08-04T20:47:53.411Z,3.80
2022-08-04T20:50:29.773Z,4.37
2022-08-04T20:52:58.767Z,4.13
2022-08-04T20:55:29.393Z,4.80
2022-08-04T20:58:03.268Z,4.50
2022-08-04T21:00:32.471Z,4.57
2022-08-04T21:03:02.105Z,4.47
2022-08-04T21:08:18.852Z,4.57
2022-08-04T21:10:55.652Z,4.20
2022-08-04T21:13:23.860Z,4.40
2022-08-04T21:16:11.998Z,4.67
2022-08-04T21:19:01.519Z,5.07
2022-08-04T21:21:35.650Z,4.60
2022-08-04T21:24:04.004Z,4.53
2022-08-04T21:26:32.715Z,5.17
2022-08-04T21:29:00.858Z,4.30
2022-08-04T21:31:29.062Z,4.73
2022-08-04T21:33:57.280Z,4.77
2022-08-04T21:36:27.674Z,5.47
2022-08-04T21:38:56.042Z,5.27
2022-08-04T21:41:26.885Z,5.30
2022-08-04T21:43:58.754Z,4.73
2022-08-04T21:46:30.316Z,4.97
2022-08-04T21:49:00.520Z,4.80
2022-08-04T21:51:58.094Z,5.10
2022-08-04T21:54:24.182Z,4.83
2022-08-04T21:56:52.452Z,4.87
2022-08-04T21:59:23.718Z,5.17
2022-08-04T22:02:01.612Z,5.33
2022-08-04T22:04:30.940Z,5.97
2022-08-04T22:07:02.886Z,6.33
2022-08-04T22:09:38.738Z,5.20
2022-08-04T22:12:12.122Z,5.60
2022-08-04T22:14:41.073Z,5.43
2022-08-04T22:17:13.561Z,4.93
2022-08-04T22:19:55.154Z,5.57
2022-08-04T22:22:29.440Z,5.70
2022-08-04T22:25:06.274Z,5.87
2022-08-04T22:28:00.994Z,5.10
2022-08-04T22:30:32.894Z,5.73
2022-08-04T22:33:08.517Z,5.63
2022-08-04T22:35:48.895Z,5.47
2022-08-04T22:38:29.102Z,5.97
2022-08-04T22:41:10.673Z,5.73
2022-08-04T22:43:40.105Z,6.33
2022-08-04T22:46:12.278Z,6.63
2022-08-04T22:48:43.388Z,6.03
2022-08-04T22:51:12.986Z,6.43
2022-08-04T22:53:48.754Z,6.00
2022-08-04T22:56:37.779Z,6.57
2022-08-04T22:59:06.114Z,6.17
2022-08-04T23:01:58.721Z,6.20
2022-08-04T23:04:25.291Z,6.50
2022-08-04T23:06:54.359Z,6.57
2022-08-04T23:09:49.562Z,6.47
2022-08-04T23:12:28.422Z,7.07
2022-08-04T23:14:58.289Z,6.90
2022-08-04T23:17:28.391Z,6.90
2022-08-04T23:19:58.971Z,5.73
2022-08-04T23:22:42.100Z,5.90
2022-08-04T23:25:15.302Z,5.83
2022-08-04T23:27:51.105Z,6.40
2022-08-04T23:30:29.518Z,5.70
2022-08-04T23:32:58.857Z,5.90
2022-08-04T23:35:27.811Z,5.57
2022-08-04T23:37:57.908Z,6.10
2022-08-04T23:40:34.194Z,5.87
2022-08-04T23:43:12.109Z,5.60
2022-08-04T23:46:04.000Z,5.70
2022-08-04T23:48:33.805Z,6.20
2022-08-04T23:51:07.642Z,6.20
2022-08-04T23:54:01.908Z,5.87
2022-08-04T23:56:33.157Z,5.57
2022-08-04T23:59:03.850Z,5.90
